sensor_id;sensor_type;location;lat;lon;timestamp;P1;durP1;ratioP1;P2;durP2;ratioP2
20731;SDS011;10527;52.124;5.196;2024-01-30T00:02:02;10.17;;;8.10;;
20731;SDS011;10527;52.124;5.196;2024-01-30T00:04:29;10.20;;;8.07;;
20731;SDS011;10527;52.124;5.196;2024-01-30T00:06:57;9.67;;;8.07;;
20731;SDS011;10527;52.124;5.196;2024-01-30T00:09:25;10.80;;;7.90;;
20731;SDS011;10527;52.124;5.196;2024-01-30T00:11:52;10.77;;;8.10;;
20731;SDS011;10527;52.124;5.196;2024-01-30T00:14:20;11.00;;;8.17;;
20731;SDS011;10527;52.124;5.196;2024-01-30T00:16:50;12.57;;;9.23;;
20731;SDS011;10527;52.124;5.196;2024-01-30T00:19:18;10.03;;;7.53;;
20731;SDS011;10527;52.124;5.196;2024-01-30T00:21:45;10.83;;;8.23;;
20731;SDS011;10527;52.124;5.196;2024-01-30T00:24:13;11.90;;;7.67;;
20731;SDS011;10527;52.124;5.196;2024-01-30T00:26:41;9.63;;;7.20;;
20731;SDS011;10527;52.124;5.196;2024-01-30T00:29:08;9.60;;;7.67;;
20731;SDS011;10527;52.124;5.196;2024-01-30T00:31:36;10.07;;;7.80;;
20731;SDS011;10527;52.124;5.196;2024-01-30T00:34:07;10.77;;;7.83;;
20731;SDS011;10527;52.124;5.196;2024-01-30T00:36:34;10.33;;;7.47;;
20731;SDS011;10527;52.124;5.196;2024-01-30T00:39:03;9.97;;;7.47;;
20731;SDS011;10527;52.124;5.196;2024-01-30T00:41:35;9.80;;;7.53;;
20731;SDS011;10527;52.124;5.196;2024-01-30T00:44:03;10.33;;;8.03;;
20731;SDS011;10527;52.124;5.196;2024-01-30T00:46:30;11.00;;;7.37;;
20731;SDS011;10527;52.124;5.196;2024-01-30T00:48:58;8.20;;;6.73;;
20731;SDS011;10527;52.124;5.196;2024-01-30T00:51:25;10.80;;;7.47;;
20731;SDS011;10527;52.124;5.196;2024-01-30T00:53:56;10.03;;;7.43;;
20731;SDS011;10527;52.124;5.196;2024-01-30T00:56:24;9.27;;;7.67;;
20731;SDS011;10527;52.124;5.196;2024-01-30T00:58:51;10.47;;;7.07;;
20731;SDS011;10527;52.124;5.196;2024-01-30T01:01:19;9.37;;;7.60;;
20731;SDS011;10527;52.124;5.196;2024-01-30T01:03:46;8.43;;;7.40;;
20731;SDS011;10527;52.124;5.196;2024-01-30T01:06:15;12.00;;;7.23;;
20731;SDS011;10527;52.124;5.196;2024-01-30T01:08:43;9.27;;;7.67;;
20731;SDS011;10527;52.124;5.196;2024-01-30T01:11:10;9.97;;;7.83;;
20731;SDS011;10527;52.124;5.196;2024-01-30T01:13:38;9.73;;;7.27;;
20731;SDS011;10527;52.124;5.196;2024-01-30T01:16:05;12.37;;;7.37;;
20731;SDS011;10527;52.124;5.196;2024-01-30T01:18:33;9.20;;;7.20;;
20731;SDS011;10527;52.124;5.196;2024-01-30T01:21:00;11.10;;;7.43;;
20731;SDS011;10527;52.124;5.196;2024-01-30T01:23:28;9.50;;;7.50;;
20731;SDS011;10527;52.124;5.196;2024-01-30T01:25:56;9.27;;;7.00;;
20731;SDS011;10527;52.124;5.196;2024-01-30T01:28:26;8.83;;;7.20;;
20731;SDS011;10527;52.124;5.196;2024-01-30T01:30:54;11.43;;;7.60;;
20731;SDS011;10527;52.124;5.196;2024-01-30T01:33:25;8.20;;;6.73;;
20731;SDS011;10527;52.124;5.196;2024-01-30T01:35:53;10.13;;;7.27;;
20731;SDS011;10527;52.124;5.196;2024-01-30T01:38:20;11.70;;;6.97;;
20731;SDS011;10527;52.124;5.196;2024-01-30T01:40:47;10.30;;;7.93;;
20731;SDS011;10527;52.124;5.196;2024-01-30T01:43:15;8.07;;;6.67;;
20731;SDS011;10527;52.124;5.196;2024-01-30T01:45:42;9.77;;;7.23;;
20731;SDS011;10527;52.124;5.196;2024-01-30T01:48:10;11.33;;;6.90;;
20731;SDS011;10527;52.124;5.196;2024-01-30T01:50:39;10.40;;;7.40;;
20731;SDS011;10527;52.124;5.196;2024-01-30T01:53:10;9.90;;;7.33;;
20731;SDS011;10527;52.124;5.196;2024-01-30T01:55:39;9.80;;;7.10;;
20731;SDS011;10527;52.124;5.196;2024-01-30T01:58:07;9.93;;;7.53;;
20731;SDS011;10527;52.124;5.196;2024-01-30T02:00:36;9.90;;;6.93;;
20731;SDS011;10527;52.124;5.196;2024-01-30T02:03:10;9.20;;;7.33;;
20731;SDS011;10527;52.124;5.196;2024-01-30T02:05:40;10.90;;;7.30;;
20731;SDS011;10527;52.124;5.196;2024-01-30T02:08:08;11.70;;;7.80;;
20731;SDS011;10527;52.124;5.196;2024-01-30T02:10:36;9.87;;;7.90;;
20731;SDS011;10527;52.124;5.196;2024-01-30T02:13:04;8.37;;;7.20;;
20731;SDS011;10527;52.124;5.196;2024-01-30T02:15:31;8.30;;;7.07;;
20731;SDS011;10527;52.124;5.196;2024-01-30T02:17:59;10.77;;;7.43;;
20731;SDS011;10527;52.124;5.196;2024-01-30T02:20:27;10.50;;;7.73;;
20731;SDS011;10527;52.124;5.196;2024-01-30T02:22:58;9.43;;;6.47;;
20731;SDS011;10527;52.124;5.196;2024-01-30T02:25:31;8.37;;;6.80;;
20731;SDS011;10527;52.124;5.196;2024-01-30T02:28:04;10.10;;;8.53;;
20731;SDS011;10527;52.124;5.196;2024-01-30T02:30:32;10.57;;;6.93;;
20731;SDS011;10527;52.124;5.196;2024-01-30T02:32:59;9.70;;;7.27;;
20731;SDS011;10527;52.124;5.196;2024-01-30T02:35:27;9.60;;;7.50;;
20731;SDS011;10527;52.124;5.196;2024-01-30T02:37:54;10.13;;;7.47;;
20731;SDS011;10527;52.124;5.196;2024-01-30T02:40:22;11.57;;;7.33;;
20731;SDS011;10527;52.124;5.196;2024-01-30T02:42:49;11.03;;;7.70;;
20731;SDS011;10527;52.124;5.196;2024-01-30T02:45:17;7.83;;;6.53;;
20731;SDS011;10527;52.124;5.196;2024-01-30T02:47:45;11.50;;;7.37;;
20731;SDS011;10527;52.124;5.196;2024-01-30T02:50:12;9.87;;;7.73;;
20731;SDS011;10527;52.124;5.196;2024-01-30T02:52:42;8.40;;;7.20;;
20731;SDS011;10527;52.124;5.196;2024-01-30T02:55:10;9.57;;;6.60;;
20731;SDS011;10527;52.124;5.196;2024-01-30T02:57:38;8.47;;;7.00;;
20731;SDS011;10527;52.124;5.196;2024-01-30T03:00:06;11.23;;;7.43;;
20731;SDS011;10527;52.124;5.196;2024-01-30T03:02:36;9.00;;;7.53;;
20731;SDS011;10527;52.124;5.196;2024-01-30T03:05:05;10.43;;;7.10;;
20731;SDS011;10527;52.124;5.196;2024-01-30T03:07:33;10.83;;;7.37;;
20731;SDS011;10527;52.124;5.196;2024-01-30T03:10:01;8.60;;;6.37;;
20731;SDS011;10527;52.124;5.196;2024-01-30T03:12:30;11.17;;;7.80;;
20731;SDS011;10527;52.124;5.196;2024-01-30T03:14:58;10.60;;;7.27;;
20731;SDS011;10527;52.124;5.196;2024-01-30T03:17:26;8.80;;;6.80;;
20731;SDS011;10527;52.124;5.196;2024-01-30T03:19:53;8.70;;;7.10;;
20731;SDS011;10527;52.124;5.196;2024-01-30T03:22:21;10.13;;;7.07;;
20731;SDS011;10527;52.124;5.196;2024-01-30T03:24:50;8.60;;;7.03;;
20731;SDS011;10527;52.124;5.196;2024-01-30T03:27:17;9.30;;;7.07;;
20731;SDS011;10527;52.124;5.196;2024-01-30T03:29:45;8.40;;;7.33;;
20731;SDS011;10527;52.124;5.196;2024-01-30T03:32:12;8.83;;;7.53;;
20731;SDS011;10527;52.124;5.196;2024-01-30T03:34:40;9.17;;;6.70;;
20731;SDS011;10527;52.124;5.196;2024-01-30T03:37:07;14.00;;;7.80;;
20731;SDS011;10527;52.124;5.196;2024-01-30T03:39:35;10.37;;;7.10;;
20731;SDS011;10527;52.124;5.196;2024-01-30T03:42:03;13.10;;;7.87;;
20731;SDS011;10527;52.124;5.196;2024-01-30T03:44:30;11.23;;;7.87;;
20731;SDS011;10527;52.124;5.196;2024-01-30T03:46:58;10.83;;;8.27;;
20731;SDS011;10527;52.124;5.196;2024-01-30T03:49:27;11.77;;;8.50;;
20731;SDS011;10527;52.124;5.196;2024-01-30T03:51:55;11.33;;;7.90;;
20731;SDS011;10527;52.124;5.196;2024-01-30T03:54:23;12.27;;;8.60;;
20731;SDS011;10527;52.124;5.196;2024-01-30T03:56:50;12.07;;;8.80;;
20731;SDS011;10527;52.124;5.196;2024-01-30T03:59:18;11.63;;;9.00;;
20731;SDS011;10527;52.124;5.196;2024-01-30T04:01:50;13.60;;;10.23;;
20731;SDS011;10527;52.124;5.196;2024-01-30T04:04:19;12.40;;;9.20;;
20731;SDS011;10527;52.124;5.196;2024-01-30T04:06:46;13.47;;;9.90;;
20731;SDS011;10527;52.124;5.196;2024-01-30T04:09:14;11.57;;;9.03;;
20731;SDS011;10527;52.124;5.196;2024-01-30T04:11:42;14.07;;;9.27;;
20731;SDS011;10527;52.124;5.196;2024-01-30T04:14:10;11.70;;;9.10;;
20731;SDS011;10527;52.124;5.196;2024-01-30T04:16:38;12.23;;;9.27;;
20731;SDS011;10527;52.124;5.196;2024-01-30T04:19:05;10.67;;;8.47;;
20731;SDS011;10527;52.124;5.196;2024-01-30T04:21:33;13.63;;;9.30;;
20731;SDS011;10527;52.124;5.196;2024-01-30T04:24:01;11.33;;;8.90;;
20731;SDS011;10527;52.124;5.196;2024-01-30T04:26:30;11.97;;;9.27;;
20731;SDS011;10527;52.124;5.196;2024-01-30T04:28:58;10.13;;;8.70;;
20731;SDS011;10527;52.124;5.196;2024-01-30T04:31:25;11.30;;;9.00;;
20731;SDS011;10527;52.124;5.196;2024-01-30T04:33:53;13.80;;;9.50;;
20731;SDS011;10527;52.124;5.196;2024-01-30T04:36:21;14.23;;;9.50;;
20731;SDS011;10527;52.124;5.196;2024-01-30T04:38:49;10.60;;;8.53;;
20731;SDS011;10527;52.124;5.196;2024-01-30T04:41:16;14.50;;;9.73;;
20731;SDS011;10527;52.124;5.196;2024-01-30T04:43:44;12.67;;;9.37;;
20731;SDS011;10527;52.124;5.196;2024-01-30T04:46:11;13.80;;;10.10;;
20731;SDS011;10527;52.124;5.196;2024-01-30T04:48:38;12.50;;;8.57;;
20731;SDS011;10527;52.124;5.196;2024-01-30T04:51:06;12.73;;;9.30;;
20731;SDS011;10527;52.124;5.196;2024-01-30T04:53:34;12.87;;;9.87;;
20731;SDS011;10527;52.124;5.196;2024-01-30T04:56:01;13.30;;;10.10;;
20731;SDS011;10527;52.124;5.196;2024-01-30T04:58:29;11.60;;;8.80;;
20731;SDS011;10527;52.124;5.196;2024-01-30T05:00:56;12.87;;;8.53;;
20731;SDS011;10527;52.124;5.196;2024-01-30T05:03:25;10.23;;;8.57;;
20731;SDS011;10527;52.124;5.196;2024-01-30T05:05:53;11.57;;;9.20;;
20731;SDS011;10527;52.124;5.196;2024-01-30T05:08:21;10.57;;;7.83;;
20731;SDS011;10527;52.124;5.196;2024-01-30T05:10:49;9.70;;;7.77;;
20731;SDS011;10527;52.124;5.196;2024-01-30T05:13:16;11.00;;;7.50;;
20731;SDS011;10527;52.124;5.196;2024-01-30T05:15:43;9.23;;;7.77;;
20731;SDS011;10527;52.124;5.196;2024-01-30T05:18:11;9.67;;;7.73;;
20731;SDS011;10527;52.124;5.196;2024-01-30T05:20:39;9.87;;;7.40;;
20731;SDS011;10527;52.124;5.196;2024-01-30T05:23:06;9.37;;;7.33;;
20731;SDS011;10527;52.124;5.196;2024-01-30T05:25:34;10.00;;;7.80;;
20731;SDS011;10527;52.124;5.196;2024-01-30T05:28:01;10.93;;;7.80;;
20731;SDS011;10527;52.124;5.196;2024-01-30T05:30:29;9.00;;;6.97;;
20731;SDS011;10527;52.124;5.196;2024-01-30T05:32:58;9.27;;;7.47;;
20731;SDS011;10527;52.124;5.196;2024-01-30T05:35:25;9.37;;;6.97;;
20731;SDS011;10527;52.124;5.196;2024-01-30T05:37:53;8.90;;;6.37;;
20731;SDS011;10527;52.124;5.196;2024-01-30T05:40:21;10.37;;;7.70;;
20731;SDS011;10527;52.124;5.196;2024-01-30T05:42:48;10.33;;;6.63;;
20731;SDS011;10527;52.124;5.196;2024-01-30T05:45:16;8.80;;;6.37;;
20731;SDS011;10527;52.124;5.196;2024-01-30T05:47:44;10.00;;;6.37;;
20731;SDS011;10527;52.124;5.196;2024-01-30T05:50:11;8.80;;;6.67;;
20731;SDS011;10527;52.124;5.196;2024-01-30T05:52:39;10.03;;;6.80;;
20731;SDS011;10527;52.124;5.196;2024-01-30T05:55:06;10.07;;;6.80;;
20731;SDS011;10527;52.124;5.196;2024-01-30T05:57:35;9.13;;;6.77;;
20731;SDS011;10527;52.124;5.196;2024-01-30T06:00:04;10.20;;;6.37;;
20731;SDS011;10527;52.124;5.196;2024-01-30T06:02:32;10.50;;;6.73;;
20731;SDS011;10527;52.124;5.196;2024-01-30T06:05:00;10.53;;;7.13;;
20731;SDS011;10527;52.124;5.196;2024-01-30T06:07:28;8.63;;;6.90;;
20731;SDS011;10527;52.124;5.196;2024-01-30T06:10:01;8.70;;;6.53;;
20731;SDS011;10527;52.124;5.196;2024-01-30T06:12:30;8.93;;;6.23;;
20731;SDS011;10527;52.124;5.196;2024-01-30T06:14:57;7.23;;;6.27;;
20731;SDS011;10527;52.124;5.196;2024-01-30T06:17:25;8.77;;;6.33;;
20731;SDS011;10527;52.124;5.196;2024-01-30T06:19:52;8.70;;;6.40;;
20731;SDS011;10527;52.124;5.196;2024-01-30T06:22:20;9.80;;;6.50;;
20731;SDS011;10527;52.124;5.196;2024-01-30T06:24:48;7.90;;;6.27;;
20731;SDS011;10527;52.124;5.196;2024-01-30T06:27:15;6.80;;;6.00;;
20731;SDS011;10527;52.124;5.196;2024-01-30T06:29:44;8.30;;;6.47;;
20731;SDS011;10527;52.124;5.196;2024-01-30T06:32:12;8.17;;;6.20;;
20731;SDS011;10527;52.124;5.196;2024-01-30T06:34:41;7.57;;;5.97;;
20731;SDS011;10527;52.124;5.196;2024-01-30T06:37:10;9.20;;;5.93;;
20731;SDS011;10527;52.124;5.196;2024-01-30T06:39:38;8.97;;;6.33;;
20731;SDS011;10527;52.124;5.196;2024-01-30T06:42:06;8.43;;;5.97;;
20731;SDS011;10527;52.124;5.196;2024-01-30T06:44:33;8.07;;;6.00;;
20731;SDS011;10527;52.124;5.196;2024-01-30T06:47:01;11.63;;;6.17;;
20731;SDS011;10527;52.124;5.196;2024-01-30T06:49:29;11.23;;;5.70;;
20731;SDS011;10527;52.124;5.196;2024-01-30T06:51:56;7.53;;;5.80;;
20731;SDS011;10527;52.124;5.196;2024-01-30T06:54:24;8.20;;;6.20;;
20731;SDS011;10527;52.124;5.196;2024-01-30T06:56:51;8.57;;;6.33;;
20731;SDS011;10527;52.124;5.196;2024-01-30T06:59:19;6.77;;;5.77;;
20731;SDS011;10527;52.124;5.196;2024-01-30T07:01:47;9.90;;;6.97;;
20731;SDS011;10527;52.124;5.196;2024-01-30T07:04:14;8.40;;;5.93;;
20731;SDS011;10527;52.124;5.196;2024-01-30T07:06:42;6.23;;;5.13;;
20731;SDS011;10527;52.124;5.196;2024-01-30T07:09:11;8.63;;;5.90;;
20731;SDS011;10527;52.124;5.196;2024-01-30T07:11:39;6.87;;;5.60;;
20731;SDS011;10527;52.124;5.196;2024-01-30T07:14:08;7.00;;;5.53;;
20731;SDS011;10527;52.124;5.196;2024-01-30T07:16:36;8.70;;;5.90;;
20731;SDS011;10527;52.124;5.196;2024-01-30T07:19:03;9.10;;;5.77;;
20731;SDS011;10527;52.124;5.196;2024-01-30T07:21:31;9.37;;;5.53;;
20731;SDS011;10527;52.124;5.196;2024-01-30T07:24:01;8.33;;;5.83;;
20731;SDS011;10527;52.124;5.196;2024-01-30T07:26:28;8.57;;;5.93;;
20731;SDS011;10527;52.124;5.196;2024-01-30T07:28:56;12.07;;;6.37;;
20731;SDS011;10527;52.124;5.196;2024-01-30T07:31:23;7.53;;;5.93;;
20731;SDS011;10527;52.124;5.196;2024-01-30T07:33:51;12.40;;;5.73;;
20731;SDS011;10527;52.124;5.196;2024-01-30T07:36:19;9.13;;;5.53;;
20731;SDS011;10527;52.124;5.196;2024-01-30T07:38:47;8.50;;;6.13;;
20731;SDS011;10527;52.124;5.196;2024-01-30T07:41:14;7.70;;;5.73;;
20731;SDS011;10527;52.124;5.196;2024-01-30T07:43:43;8.07;;;5.70;;
20731;SDS011;10527;52.124;5.196;2024-01-30T07:46:10;9.93;;;6.40;;
20731;SDS011;10527;52.124;5.196;2024-01-30T07:48:37;11.33;;;6.27;;
20731;SDS011;10527;52.124;5.196;2024-01-30T07:51:06;8.90;;;5.97;;
20731;SDS011;10527;52.124;5.196;2024-01-30T07:53:35;7.93;;;5.77;;
20731;SDS011;10527;52.124;5.196;2024-01-30T07:56:03;10.83;;;6.00;;
20731;SDS011;10527;52.124;5.196;2024-01-30T07:58:32;8.90;;;6.30;;
20731;SDS011;10527;52.124;5.196;2024-01-30T08:01:02;11.77;;;6.97;;
20731;SDS011;10527;52.124;5.196;2024-01-30T08:03:32;8.80;;;6.00;;
20731;SDS011;10527;52.124;5.196;2024-01-30T08:06:00;9.57;;;5.80;;
20731;SDS011;10527;52.124;5.196;2024-01-30T08:08:28;7.47;;;5.67;;
20731;SDS011;10527;52.124;5.196;2024-01-30T08:10:55;10.07;;;6.10;;
20731;SDS011;10527;52.124;5.196;2024-01-30T08:13:23;9.53;;;5.80;;
20731;SDS011;10527;52.124;5.196;2024-01-30T08:15:51;8.67;;;5.67;;
20731;SDS011;10527;52.124;5.196;2024-01-30T08:18:19;8.90;;;6.03;;
20731;SDS011;10527;52.124;5.196;2024-01-30T08:20:46;8.00;;;5.60;;
20731;SDS011;10527;52.124;5.196;2024-01-30T08:23:14;10.23;;;6.27;;
20731;SDS011;10527;52.124;5.196;2024-01-30T08:25:41;7.50;;;5.20;;
20731;SDS011;10527;52.124;5.196;2024-01-30T08:28:09;9.07;;;6.07;;
20731;SDS011;10527;52.124;5.196;2024-01-30T08:30:36;10.60;;;6.40;;
20731;SDS011;10527;52.124;5.196;2024-01-30T08:33:05;10.88;;;6.53;;
20731;SDS011;10527;52.124;5.196;2024-01-30T08:35:33;10.97;;;6.27;;
20731;SDS011;10527;52.124;5.196;2024-01-30T08:38:00;8.90;;;5.60;;
20731;SDS011;10527;52.124;5.196;2024-01-30T08:40:32;9.10;;;6.00;;
20731;SDS011;10527;52.124;5.196;2024-01-30T08:42:59;8.90;;;6.25;;
20731;SDS011;10527;52.124;5.196;2024-01-30T08:45:27;10.90;;;5.73;;
20731;SDS011;10527;52.124;5.196;2024-01-30T08:47:54;8.53;;;5.97;;
20731;SDS011;10527;52.124;5.196;2024-01-30T08:50:23;9.30;;;6.10;;
20731;SDS011;10527;52.124;5.196;2024-01-30T08:52:50;9.73;;;5.67;;
20731;SDS011;10527;52.124;5.196;2024-01-30T08:55:18;8.97;;;6.37;;
20731;SDS011;10527;52.124;5.196;2024-01-30T08:57:45;12.03;;;5.83;;
20731;SDS011;10527;52.124;5.196;2024-01-30T09:00:13;8.68;;;5.70;;
20731;SDS011;10527;52.124;5.196;2024-01-30T09:02:41;9.95;;;6.03;;
20731;SDS011;10527;52.124;5.196;2024-01-30T09:05:09;8.02;;;5.35;;
20731;SDS011;10527;52.124;5.196;2024-01-30T09:07:37;8.03;;;5.23;;
20731;SDS011;10527;52.124;5.196;2024-01-30T09:10:04;9.98;;;6.85;;
20731;SDS011;10527;52.124;5.196;2024-01-30T09:12:35;10.48;;;5.80;;
20731;SDS011;10527;52.124;5.196;2024-01-30T09:15:02;11.35;;;6.10;;
20731;SDS011;10527;52.124;5.196;2024-01-30T09:17:30;10.30;;;6.03;;
20731;SDS011;10527;52.124;5.196;2024-01-30T09:19:57;10.23;;;6.60;;
20731;SDS011;10527;52.124;5.196;2024-01-30T09:22:25;10.70;;;6.43;;
20731;SDS011;10527;52.124;5.196;2024-01-30T09:24:53;11.97;;;5.50;;
20731;SDS011;10527;52.124;5.196;2024-01-30T09:27:20;11.20;;;6.25;;
20731;SDS011;10527;52.124;5.196;2024-01-30T09:29:48;6.20;;;5.57;;
20731;SDS011;10527;52.124;5.196;2024-01-30T09:32:15;8.38;;;5.45;;
20731;SDS011;10527;52.124;5.196;2024-01-30T09:34:44;10.50;;;5.93;;
20731;SDS011;10527;52.124;5.196;2024-01-30T09:37:11;9.80;;;6.47;;
20731;SDS011;10527;52.124;5.196;2024-01-30T09:39:41;9.00;;;6.10;;
20731;SDS011;10527;52.124;5.196;2024-01-30T09:42:15;8.93;;;5.57;;
20731;SDS011;10527;52.124;5.196;2024-01-30T09:44:51;10.77;;;5.85;;
20731;SDS011;10527;52.124;5.196;2024-01-30T09:47:19;12.15;;;5.75;;
20731;SDS011;10527;52.124;5.196;2024-01-30T09:49:47;8.55;;;5.93;;
20731;SDS011;10527;52.124;5.196;2024-01-30T09:52:15;8.52;;;6.13;;
20731;SDS011;10527;52.124;5.196;2024-01-30T09:54:42;9.15;;;5.35;;
20731;SDS011;10527;52.124;5.196;2024-01-30T09:57:14;9.00;;;6.20;;
20731;SDS011;10527;52.124;5.196;2024-01-30T09:59:41;8.48;;;6.35;;
20731;SDS011;10527;52.124;5.196;2024-01-30T10:02:11;8.80;;;5.45;;
20731;SDS011;10527;52.124;5.196;2024-01-30T10:04:39;9.75;;;5.78;;
20731;SDS011;10527;52.124;5.196;2024-01-30T10:07:07;10.05;;;5.88;;
20731;SDS011;10527;52.124;5.196;2024-01-30T10:09:36;13.55;;;7.05;;
20731;SDS011;10527;52.124;5.196;2024-01-30T10:12:04;9.63;;;5.78;;
20731;SDS011;10527;52.124;5.196;2024-01-30T10:14:32;9.60;;;5.82;;
20731;SDS011;10527;52.124;5.196;2024-01-30T10:17:01;10.32;;;5.80;;
20731;SDS011;10527;52.124;5.196;2024-01-30T10:19:40;10.73;;;5.97;;
20731;SDS011;10527;52.124;5.196;2024-01-30T10:22:09;10.50;;;5.78;;
20731;SDS011;10527;52.124;5.196;2024-01-30T10:24:37;12.65;;;5.70;;
20731;SDS011;10527;52.124;5.196;2024-01-30T10:27:05;7.45;;;5.75;;
20731;SDS011;10527;52.124;5.196;2024-01-30T10:29:33;11.98;;;6.53;;
20731;SDS011;10527;52.124;5.196;2024-01-30T10:32:09;10.50;;;5.85;;
20731;SDS011;10527;52.124;5.196;2024-01-30T10:34:37;11.48;;;5.75;;
20731;SDS011;10527;52.124;5.196;2024-01-30T10:37:06;10.05;;;5.88;;
20731;SDS011;10527;52.124;5.196;2024-01-30T10:39:43;8.50;;;5.60;;
20731;SDS011;10527;52.124;5.196;2024-01-30T10:42:17;10.25;;;6.05;;
20731;SDS011;10527;52.124;5.196;2024-01-30T10:47:35;12.18;;;6.13;;
20731;SDS011;10527;52.124;5.196;2024-01-30T10:50:04;8.25;;;5.65;;
20731;SDS011;10527;52.124;5.196;2024-01-30T10:52:32;10.93;;;6.32;;
20731;SDS011;10527;52.124;5.196;2024-01-30T10:55:00;7.93;;;5.65;;
20731;SDS011;10527;52.124;5.196;2024-01-30T10:57:31;10.65;;;5.63;;
20731;SDS011;10527;52.124;5.196;2024-01-30T11:00:10;9.57;;;6.30;;
20731;SDS011;10527;52.124;5.196;2024-01-30T11:02:40;8.52;;;5.90;;
20731;SDS011;10527;52.124;5.196;2024-01-30T11:05:11;8.45;;;5.38;;
20731;SDS011;10527;52.124;5.196;2024-01-30T11:07:39;9.50;;;4.68;;
20731;SDS011;10527;52.124;5.196;2024-01-30T11:10:11;8.18;;;4.65;;
20731;SDS011;10527;52.124;5.196;2024-01-30T11:12:42;6.80;;;4.57;;
20731;SDS011;10527;52.124;5.196;2024-01-30T11:15:12;6.32;;;4.25;;
20731;SDS011;10527;52.124;5.196;2024-01-30T11:17:42;6.22;;;3.97;;
20731;SDS011;10527;52.124;5.196;2024-01-30T11:22:59;7.72;;;3.30;;
20731;SDS011;10527;52.124;5.196;2024-01-30T11:25:34;6.15;;;3.58;;
20731;SDS011;10527;52.124;5.196;2024-01-30T11:28:02;9.02;;;2.58;;
20731;SDS011;10527;52.124;5.196;2024-01-30T11:30:31;4.82;;;2.40;;
20731;SDS011;10527;52.124;5.196;2024-01-30T11:33:03;6.65;;;1.90;;
20731;SDS011;10527;52.124;5.196;2024-01-30T11:35:37;8.35;;;2.00;;
20731;SDS011;10527;52.124;5.196;2024-01-30T11:38:15;6.30;;;1.95;;
20731;SDS011;10527;52.124;5.196;2024-01-30T11:40:43;7.25;;;2.03;;
20731;SDS011;10527;52.124;5.196;2024-01-30T11:43:11;5.72;;;2.10;;
20731;SDS011;10527;52.124;5.196;2024-01-30T11:45:39;6.60;;;1.70;;
20731;SDS011;10527;52.124;5.196;2024-01-30T11:48:07;3.83;;;1.63;;
20731;SDS011;10527;52.124;5.196;2024-01-30T11:50:39;4.25;;;1.88;;
20731;SDS011;10527;52.124;5.196;2024-01-30T11:53:07;4.43;;;2.22;;
20731;SDS011;10527;52.124;5.196;2024-01-30T11:55:35;1.67;;;1.50;;
20731;SDS011;10527;52.124;5.196;2024-01-30T11:58:04;5.07;;;2.05;;
20731;SDS011;10527;52.124;5.196;2024-01-30T12:00:32;2.63;;;2.30;;
20731;SDS011;10527;52.124;5.196;2024-01-30T12:03:01;8.00;;;2.05;;
20731;SDS011;10527;52.124;5.196;2024-01-30T12:05:30;5.22;;;2.20;;
20731;SDS011;10527;52.124;5.196;2024-01-30T12:07:57;7.38;;;1.95;;
20731;SDS011;10527;52.124;5.196;2024-01-30T12:10:27;4.40;;;1.67;;
20731;SDS011;10527;52.124;5.196;2024-01-30T12:12:55;6.47;;;1.70;;
20731;SDS011;10527;52.124;5.196;2024-01-30T12:15:24;7.07;;;1.60;;
20731;SDS011;10527;52.124;5.196;2024-01-30T12:17:52;5.07;;;1.30;;
20731;SDS011;10527;52.124;5.196;2024-01-30T12:20:30;5.55;;;1.70;;
20731;SDS011;10527;52.124;5.196;2024-01-30T12:22:58;7.50;;;1.63;;
20731;SDS011;10527;52.124;5.196;2024-01-30T12:25:25;3.60;;;1.60;;
20731;SDS011;10527;52.124;5.196;2024-01-30T12:27:52;6.17;;;1.40;;
20731;SDS011;10527;52.124;5.196;2024-01-30T12:30:21;2.70;;;1.40;;
20731;SDS011;10527;52.124;5.196;2024-01-30T12:32:49;6.80;;;1.47;;
20731;SDS011;10527;52.124;5.196;2024-01-30T12:35:18;4.47;;;1.30;;
20731;SDS011;10527;52.124;5.196;2024-01-30T12:37:47;4.80;;;1.30;;
20731;SDS011;10527;52.124;5.196;2024-01-30T12:40:16;3.90;;;1.50;;
20731;SDS011;10527;52.124;5.196;2024-01-30T12:42:48;2.10;;;1.10;;
20731;SDS011;10527;52.124;5.196;2024-01-30T12:45:16;5.13;;;1.53;;
20731;SDS011;10527;52.124;5.196;2024-01-30T12:47:49;3.67;;;1.50;;
20731;SDS011;10527;52.124;5.196;2024-01-30T12:50:17;3.07;;;1.47;;
20731;SDS011;10527;52.124;5.196;2024-01-30T12:52:45;3.90;;;1.50;;
20731;SDS011;10527;52.124;5.196;2024-01-30T12:55:15;4.63;;;1.33;;
20731;SDS011;10527;52.124;5.196;2024-01-30T12:57:44;2.23;;;0.97;;
20731;SDS011;10527;52.124;5.196;2024-01-30T13:00:12;4.40;;;1.50;;
20731;SDS011;10527;52.124;5.196;2024-01-30T13:02:40;1.97;;;1.17;;
20731;SDS011;10527;52.124;5.196;2024-01-30T13:05:09;26.57;;;13.47;;
20731;SDS011;10527;52.124;5.196;2024-01-30T13:07:38;11.57;;;4.97;;
20731;SDS011;10527;52.124;5.196;2024-01-30T13:10:06;8.80;;;4.37;;
20731;SDS011;10527;52.124;5.196;2024-01-30T13:12:33;9.40;;;2.50;;
20731;SDS011;10527;52.124;5.196;2024-01-30T13:15:01;4.10;;;1.60;;
20731;SDS011;10527;52.124;5.196;2024-01-30T13:17:31;5.43;;;2.27;;
20731;SDS011;10527;52.124;5.196;2024-01-30T13:19:59;7.23;;;2.90;;
20731;SDS011;10527;52.124;5.196;2024-01-30T13:22:36;6.67;;;3.33;;
20731;SDS011;10527;52.124;5.196;2024-01-30T13:25:05;8.33;;;3.17;;
20731;SDS011;10527;52.124;5.196;2024-01-30T13:27:35;5.03;;;2.10;;
20731;SDS011;10527;52.124;5.196;2024-01-30T13:30:04;4.67;;;1.80;;
20731;SDS011;10527;52.124;5.196;2024-01-30T13:32:33;3.37;;;1.30;;
20731;SDS011;10527;52.124;5.196;2024-01-30T13:35:00;4.20;;;1.33;;
20731;SDS011;10527;52.124;5.196;2024-01-30T13:37:28;7.20;;;2.53;;
20731;SDS011;10527;52.124;5.196;2024-01-30T13:39:56;4.47;;;2.20;;
20731;SDS011;10527;52.124;5.196;2024-01-30T13:42:26;4.47;;;1.73;;
20731;SDS011;10527;52.124;5.196;2024-01-30T13:44:53;4.03;;;1.80;;
20731;SDS011;10527;52.124;5.196;2024-01-30T13:47:21;3.67;;;1.80;;
20731;SDS011;10527;52.124;5.196;2024-01-30T13:49:50;3.67;;;1.80;;
20731;SDS011;10527;52.124;5.196;2024-01-30T13:52:19;6.53;;;2.73;;
20731;SDS011;10527;52.124;5.196;2024-01-30T13:54:51;6.13;;;1.70;;
20731;SDS011;10527;52.124;5.196;2024-01-30T13:57:18;5.00;;;2.57;;
20731;SDS011;10527;52.124;5.196;2024-01-30T13:59:46;3.90;;;2.20;;
20731;SDS011;10527;52.124;5.196;2024-01-30T14:02:13;4.73;;;1.97;;
20731;SDS011;10527;52.124;5.196;2024-01-30T14:04:41;2.23;;;1.53;;
20731;SDS011;10527;52.124;5.196;2024-01-30T14:07:09;6.10;;;1.63;;
20731;SDS011;10527;52.124;5.196;2024-01-30T14:09:37;5.57;;;2.27;;
20731;SDS011;10527;52.124;5.196;2024-01-30T14:12:04;3.93;;;2.30;;
20731;SDS011;10527;52.124;5.196;2024-01-30T14:14:32;4.10;;;1.90;;
20731;SDS011;10527;52.124;5.196;2024-01-30T14:17:00;4.67;;;1.83;;
20731;SDS011;10527;52.124;5.196;2024-01-30T14:19:27;2.43;;;1.70;;
20731;SDS011;10527;52.124;5.196;2024-01-30T14:21:56;2.40;;;1.60;;
20731;SDS011;10527;52.124;5.196;2024-01-30T14:24:24;3.03;;;1.57;;
20731;SDS011;10527;52.124;5.196;2024-01-30T14:26:52;2.80;;;1.30;;
20731;SDS011;10527;52.124;5.196;2024-01-30T14:29:20;4.43;;;1.50;;
20731;SDS011;10527;52.124;5.196;2024-01-30T14:31:47;4.90;;;1.40;;
20731;SDS011;10527;52.124;5.196;2024-01-30T14:34:15;3.10;;;1.47;;
20731;SDS011;10527;52.124;5.196;2024-01-30T14:36:42;4.13;;;1.50;;
20731;SDS011;10527;52.124;5.196;2024-01-30T14:39:10;3.43;;;1.57;;
20731;SDS011;10527;52.124;5.196;2024-01-30T14:41:39;3.87;;;1.70;;
20731;SDS011;10527;52.124;5.196;2024-01-30T14:44:06;4.33;;;2.17;;
20731;SDS011;10527;52.124;5.196;2024-01-30T14:46:34;2.37;;;2.17;;
20731;SDS011;10527;52.124;5.196;2024-01-30T14:49:03;3.37;;;2.17;;
20731;SDS011;10527;52.124;5.196;2024-01-30T14:51:33;4.87;;;2.40;;
20731;SDS011;10527;52.124;5.196;2024-01-30T14:54:01;4.33;;;2.60;;
20731;SDS011;10527;52.124;5.196;2024-01-30T14:56:28;3.47;;;3.17;;